createdAt,value
2023-03-03T00:02:23.111Z,20.36
2023-03-03T00:04:49.584Z,20.36
2023-03-03T00:07:21.535Z,20.37
2023-03-03T00:09:47.854Z,20.39
2023-03-03T00:12:32.336Z,20.39
2023-03-03T00:14:58.683Z,20.39
2023-03-03T00:17:26.272Z,20.39
2023-03-03T00:19:52.818Z,20.39
2023-03-03T00:22:25.497Z,20.37
2023-03-03T00:24:51.935Z,20.38
2023-03-03T00:27:25.216Z,20.37
2023-03-03T00:29:53.465Z,20.35
2023-03-03T00:32:25.604Z,20.35
2023-03-03T00:34:52.614Z,20.35
2023-03-03T00:37:29.150Z,20.35
2023-03-03T00:40:16.792Z,20.36
2023-03-03T00:42:44.793Z,20.38
2023-03-03T00:45:18.477Z,20.38
2023-03-03T00:47:44.825Z,20.37
2023-03-03T00:50:11.075Z,20.38
2023-03-03T00:52:38.257Z,20.37
2023-03-03T00:55:05.060Z,20.36
2023-03-03T00:57:31.410Z,20.36
2023-03-03T00:59:57.927Z,20.35
2023-03-03T01:02:24.387Z,20.35
2023-03-03T01:04:51.781Z,20.34
2023-03-03T01:07:18.460Z,20.34
2023-03-03T01:09:44.779Z,20.33
2023-03-03T01:12:11.498Z,20.33
2023-03-03T01:14:38.096Z,20.34
2023-03-03T01:17:04.457Z,20.34
2023-03-03T01:19:30.777Z,20.34
2023-03-03T01:21:57.582Z,20.35
2023-03-03T01:24:23.972Z,20.37
2023-03-03T01:26:50.339Z,20.32
2023-03-03T01:29:16.664Z,20.28
2023-03-03T01:31:43.014Z,20.27
2023-03-03T01:34:09.351Z,20.25
2023-03-03T01:36:37.081Z,20.26
2023-03-03T01:39:03.719Z,20.26
2023-03-03T01:41:32.298Z,20.24
2023-03-03T01:43:58.648Z,20.25
2023-03-03T01:46:25.060Z,20.25
2023-03-03T01:48:51.826Z,20.24
2023-03-03T01:51:22.757Z,20.24
2023-03-03T01:53:53.006Z,20.25
2023-03-03T01:56:19.329Z,20.26
2023-03-03T01:58:46.708Z,20.27
2023-03-03T02:01:14.580Z,20.26
2023-03-03T02:03:41.055Z,20.25
2023-03-03T02:06:08.461Z,20.26
2023-03-03T02:08:50.480Z,20.25
2023-03-03T02:11:16.849Z,20.25
2023-03-03T02:13:43.189Z,20.25
2023-03-03T02:16:09.544Z,20.26
2023-03-03T02:18:35.905Z,20.24
2023-03-03T02:21:04.984Z,20.24
2023-03-03T02:23:35.351Z,20.23
2023-03-03T02:26:01.648Z,20.24
2023-03-03T02:28:30.361Z,20.24
2023-03-03T02:30:57.416Z,20.25
2023-03-03T02:33:24.482Z,20.26
2023-03-03T02:35:50.988Z,20.25
2023-03-03T02:38:33.935Z,20.26
2023-03-03T02:41:15.833Z,20.26
2023-03-03T02:43:47.086Z,20.26
2023-03-03T02:46:13.655Z,20.28
2023-03-03T02:48:39.975Z,20.30
2023-03-03T02:51:06.306Z,20.30
2023-03-03T02:53:32.670Z,20.29
2023-03-03T02:55:59.084Z,20.28
2023-03-03T02:58:25.698Z,20.28
2023-03-03T03:00:52.430Z,20.29
2023-03-03T03:03:22.180Z,20.25
2023-03-03T03:05:49.227Z,20.28
2023-03-03T03:08:18.737Z,20.30
2023-03-03T03:10:45.151Z,20.30
2023-03-03T03:13:12.094Z,20.32
2023-03-03T03:15:38.948Z,20.30
2023-03-03T03:18:05.298Z,20.32
2023-03-03T03:20:32.116Z,20.30
2023-03-03T03:22:58.539Z,20.28
2023-03-03T03:25:24.907Z,20.28
2023-03-03T03:27:51.371Z,20.27
2023-03-03T03:30:20.592Z,20.28
2023-03-03T03:32:47.600Z,20.27
2023-03-03T03:35:13.990Z,20.26
2023-03-03T03:37:40.425Z,20.29
2023-03-03T03:40:06.889Z,20.30
2023-03-03T03:42:33.249Z,20.29
2023-03-03T03:44:59.607Z,20.32
2023-03-03T03:47:26.322Z,20.31
2023-03-03T03:49:52.749Z,20.31
2023-03-03T03:52:19.995Z,20.33
2023-03-03T03:54:46.394Z,20.33
2023-03-03T03:57:12.798Z,20.33
2023-03-03T03:59:39.183Z,20.34
2023-03-03T04:02:05.918Z,20.35
2023-03-03T04:04:32.452Z,20.35
2023-03-03T04:06:59.518Z,20.34
2023-03-03T04:09:25.880Z,20.34
2023-03-03T04:11:52.331Z,20.34
2023-03-03T04:14:19.528Z,20.33
2023-03-03T04:16:45.940Z,20.33
2023-03-03T04:19:12.880Z,20.32
2023-03-03T04:21:41.571Z,20.32
2023-03-03T04:24:07.915Z,20.33
2023-03-03T04:26:34.282Z,20.32
2023-03-03T04:29:02.579Z,20.32
2023-03-03T04:31:29.178Z,20.32
2023-03-03T04:33:55.825Z,20.31
2023-03-03T04:36:23.207Z,20.31
2023-03-03T04:38:49.572Z,20.30
2023-03-03T04:41:16.017Z,20.28
2023-03-03T04:43:43.100Z,20.28
2023-03-03T04:46:11.757Z,20.29
2023-03-03T04:48:38.636Z,20.30
2023-03-03T04:51:05.028Z,20.33
2023-03-03T04:53:33.583Z,20.31
2023-03-03T04:55:59.948Z,20.33
2023-03-03T04:58:26.282Z,20.32
2023-03-03T05:00:54.893Z,20.33
2023-03-03T05:03:21.226Z,20.34
2023-03-03T05:05:47.572Z,20.35
2023-03-03T05:08:13.995Z,20.35
2023-03-03T05:10:40.308Z,20.35
2023-03-03T05:13:06.868Z,20.34
2023-03-03T05:15:33.196Z,20.34
2023-03-03T05:17:59.540Z,20.34
2023-03-03T05:20:26.082Z,20.33
2023-03-03T05:22:52.426Z,20.31
2023-03-03T05:25:18.755Z,20.31
2023-03-03T05:27:45.097Z,20.32
2023-03-03T05:30:11.742Z,20.32
2023-03-03T05:32:38.145Z,20.32
2023-03-03T05:35:04.862Z,20.32
2023-03-03T05:37:31.204Z,20.30
2023-03-03T05:39:57.541Z,20.31
2023-03-03T05:42:23.912Z,20.30
2023-03-03T05:44:50.313Z,20.30
2023-03-03T05:47:16.626Z,20.29
2023-03-03T05:49:42.953Z,20.29
2023-03-03T05:52:09.333Z,20.29
2023-03-03T05:54:35.664Z,20.30
2023-03-03T05:57:01.983Z,20.31
2023-03-03T05:59:28.325Z,20.32
2023-03-03T06:01:54.685Z,20.32
2023-03-03T06:04:21.049Z,20.30
2023-03-03T06:06:47.375Z,20.30
2023-03-03T06:09:13.766Z,20.32
2023-03-03T06:11:40.149Z,20.30
2023-03-03T06:14:06.513Z,20.29
2023-03-03T06:16:32.900Z,20.31
2023-03-03T06:18:59.246Z,20.33
2023-03-03T06:21:25.563Z,19.98
2023-03-03T06:23:51.938Z,20.24
2023-03-03T06:26:18.256Z,20.38
2023-03-03T06:28:44.802Z,20.50
2023-03-03T06:31:11.160Z,20.53
2023-03-03T06:33:38.350Z,20.57
2023-03-03T06:36:05.872Z,20.60
2023-03-03T06:38:32.495Z,20.63
2023-03-03T06:41:02.041Z,20.64
2023-03-03T06:43:28.374Z,20.64
2023-03-03T06:45:54.762Z,20.62
2023-03-03T06:48:21.125Z,20.60
2023-03-03T06:50:47.500Z,20.64
2023-03-03T06:53:15.064Z,20.86
2023-03-03T06:55:44.294Z,21.00
2023-03-03T06:58:12.719Z,21.09
2023-03-03T07:00:39.063Z,21.08
2023-03-03T07:03:07.740Z,20.80
2023-03-03T07:05:34.532Z,20.86
2023-03-03T07:08:00.852Z,20.93
2023-03-03T07:10:27.857Z,21.09
2023-03-03T07:12:54.455Z,21.14
2023-03-03T07:15:24.520Z,20.97
2023-03-03T07:17:52.795Z,20.11
2023-03-03T07:20:20.349Z,19.85
2023-03-03T07:22:46.659Z,20.08
2023-03-03T07:25:26.346Z,20.35
2023-03-03T07:27:53.492Z,20.46
2023-03-03T07:30:27.000Z,20.70
2023-03-03T07:32:54.756Z,20.92
2023-03-03T07:35:40.108Z,20.95
2023-03-03T07:38:35.737Z,20.97
2023-03-03T07:41:03.029Z,21.06
2023-03-03T07:43:30.288Z,21.10
2023-03-03T07:46:03.829Z,20.91
2023-03-03T07:48:31.051Z,20.91
2023-03-03T07:50:58.146Z,20.90
2023-03-03T07:53:26.844Z,20.95
2023-03-03T07:55:53.164Z,20.92
2023-03-03T07:58:19.410Z,20.89
2023-03-03T08:00:46.099Z,20.86
2023-03-03T08:03:12.922Z,20.84
2023-03-03T08:05:46.932Z,20.84
2023-03-03T08:08:13.269Z,20.86
2023-03-03T08:10:55.163Z,20.84
2023-03-03T08:13:22.140Z,20.82
2023-03-03T08:15:59.858Z,20.84
2023-03-03T08:18:29.856Z,21.00
2023-03-03T08:20:59.825Z,21.04
2023-03-03T08:23:26.166Z,21.30
2023-03-03T08:25:52.506Z,21.27
2023-03-03T08:28:19.665Z,21.40
2023-03-03T08:30:46.136Z,21.37
2023-03-03T08:33:12.709Z,21.33
2023-03-03T08:35:39.078Z,21.33
2023-03-03T08:38:05.709Z,21.22
2023-03-03T08:40:32.055Z,21.01
2023-03-03T08:42:58.373Z,20.88
2023-03-03T08:45:25.290Z,20.86
2023-03-03T08:47:51.611Z,20.84
2023-03-03T08:50:17.934Z,20.88
2023-03-03T08:52:44.263Z,20.83
2023-03-03T08:55:10.582Z,20.75
2023-03-03T08:57:37.162Z,20.77
2023-03-03T09:00:03.945Z,20.75
2023-03-03T09:02:30.297Z,20.76
2023-03-03T09:04:56.628Z,20.81
2023-03-03T09:07:22.997Z,20.80
2023-03-03T09:09:49.307Z,20.79
2023-03-03T09:12:17.094Z,20.79
2023-03-03T09:14:43.598Z,20.76
2023-03-03T09:17:18.193Z,20.75
2023-03-03T09:19:45.328Z,20.73
2023-03-03T09:22:16.261Z,20.73
2023-03-03T09:24:42.579Z,20.71
2023-03-03T09:27:27.224Z,20.71
2023-03-03T09:29:53.539Z,20.71
2023-03-03T09:32:19.812Z,20.71
2023-03-03T09:34:46.134Z,20.71
2023-03-03T09:37:15.687Z,20.72
2023-03-03T09:39:48.279Z,20.73
2023-03-03T09:42:33.474Z,20.71
2023-03-03T09:45:17.945Z,20.71
2023-03-03T09:47:56.294Z,20.69
2023-03-03T09:50:30.229Z,19.28
2023-03-03T09:53:15.223Z,18.99
2023-03-03T09:55:47.500Z,19.82
2023-03-03T09:58:26.276Z,20.20
2023-03-03T10:01:11.491Z,20.39
2023-03-03T10:03:51.295Z,20.49
2023-03-03T10:06:20.240Z,20.58
2023-03-03T10:08:53.172Z,20.64
2023-03-03T10:11:30.316Z,20.73
2023-03-03T10:14:00.634Z,20.80
2023-03-03T10:16:48.610Z,20.84
2023-03-03T10:19:19.811Z,20.87
2023-03-03T10:21:50.310Z,20.94
2023-03-03T10:24:29.328Z,20.91
2023-03-03T10:27:14.738Z,20.87
2023-03-03T10:29:46.844Z,20.96
2023-03-03T10:32:32.468Z,21.01
2023-03-03T10:35:05.085Z,20.89
2023-03-03T10:37:50.960Z,21.13
2023-03-03T10:40:20.385Z,21.21
2023-03-03T10:42:52.429Z,21.23
2023-03-03T10:45:36.970Z,21.22
2023-03-03T10:48:09.446Z,21.11
2023-03-03T10:50:55.748Z,20.95
2023-03-03T10:53:23.801Z,20.90
2023-03-03T10:56:09.506Z,20.94
2023-03-03T10:58:45.566Z,21.01
2023-03-03T11:01:24.298Z,20.99
2023-03-03T11:03:56.902Z,21.01
2023-03-03T11:06:41.672Z,21.12
2023-03-03T11:09:25.922Z,21.13
2023-03-03T11:11:55.568Z,21.12
2023-03-03T11:14:23.802Z,21.17
2023-03-03T11:17:09.130Z,21.17
2023-03-03T11:19:44.332Z,21.18
2023-03-03T11:22:13.931Z,21.23
2023-03-03T11:24:46.338Z,21.18
2023-03-03T11:27:21.411Z,21.23
2023-03-03T11:29:50.352Z,21.26
2023-03-03T11:32:19.413Z,21.30
2023-03-03T11:35:04.345Z,21.20
2023-03-03T11:37:36.182Z,21.32
2023-03-03T11:40:04.830Z,21.33
2023-03-03T11:42:36.311Z,21.40
2023-03-03T11:45:03.591Z,21.37
2023-03-03T11:47:34.828Z,21.40
2023-03-03T11:50:02.600Z,21.41
2023-03-03T11:52:40.251Z,21.40
2023-03-03T11:55:12.947Z,21.38
2023-03-03T11:57:45.506Z,21.41
2023-03-03T12:00:31.647Z,20.89
2023-03-03T12:03:16.894Z,20.85
2023-03-03T12:05:52.369Z,21.07
2023-03-03T12:08:21.620Z,21.20
2023-03-03T12:10:50.710Z,21.52
2023-03-03T12:13:23.085Z,21.53
2023-03-03T12:15:49.547Z,21.57
2023-03-03T12:18:26.770Z,21.61
2023-03-03T12:21:00.030Z,21.57
2023-03-03T12:23:35.394Z,21.66
2023-03-03T12:26:20.805Z,21.72
2023-03-03T12:28:50.190Z,21.68
2023-03-03T12:31:25.247Z,21.74
2023-03-03T12:33:56.747Z,21.73
2023-03-03T12:36:37.090Z,21.62
2023-03-03T12:39:06.704Z,21.60
2023-03-03T12:41:37.703Z,21.58
2023-03-03T12:44:23.132Z,21.59
2023-03-03T12:46:52.507Z,21.70
2023-03-03T12:49:19.132Z,21.75
2023-03-03T12:51:55.333Z,21.89
2023-03-03T12:54:40.392Z,21.92
2023-03-03T12:57:10.299Z,20.55
2023-03-03T12:59:52.105Z,20.24
2023-03-03T13:02:37.307Z,20.84
2023-03-03T13:05:09.656Z,21.23
2023-03-03T13:07:56.688Z,21.43
2023-03-03T13:10:35.454Z,21.54
2023-03-03T13:13:02.016Z,20.47
2023-03-03T13:15:32.485Z,20.73
2023-03-03T13:18:29.848Z,21.05
2023-03-03T13:21:17.122Z,21.19
2023-03-03T13:24:02.797Z,21.24
2023-03-03T13:26:32.022Z,21.25
2023-03-03T13:28:59.894Z,21.27
2023-03-03T13:31:29.270Z,21.26
2023-03-03T13:33:56.567Z,21.26
2023-03-03T13:36:24.750Z,21.25
2023-03-03T13:38:54.662Z,21.24
2023-03-03T13:41:22.502Z,21.70
2023-03-03T13:44:09.184Z,21.92
2023-03-03T13:46:37.472Z,22.14
2023-03-03T13:49:22.749Z,22.03
2023-03-03T13:52:00.735Z,21.94
2023-03-03T13:54:39.816Z,22.03
2023-03-03T13:57:16.048Z,22.04
2023-03-03T13:59:57.745Z,22.00
2023-03-03T14:02:28.605Z,21.97
2023-03-03T14:05:00.110Z,21.62
2023-03-03T14:07:45.901Z,21.30
2023-03-03T14:10:19.910Z,21.42
2023-03-03T14:12:48.355Z,21.58
2023-03-03T14:15:17.412Z,21.67
2023-03-03T14:17:55.260Z,21.75
2023-03-03T14:20:26.065Z,21.90
2023-03-03T14:22:58.600Z,21.93
2023-03-03T14:25:24.990Z,21.94
2023-03-03T14:27:51.295Z,21.99
2023-03-03T14:30:25.124Z,21.99
2023-03-03T14:33:09.795Z,21.96
2023-03-03T14:35:49.989Z,21.95
2023-03-03T14:38:31.543Z,21.99
2023-03-03T14:41:06.340Z,22.10
2023-03-03T14:43:36.318Z,22.07
2023-03-03T14:46:21.372Z,22.17
2023-03-03T14:48:51.142Z,22.25
2023-03-03T14:51:23.417Z,22.24
2023-03-03T14:53:50.055Z,22.09
2023-03-03T14:56:22.444Z,22.06
2023-03-03T14:58:48.983Z,22.02
2023-03-03T15:01:31.569Z,22.15
2023-03-03T15:03:58.731Z,22.16
2023-03-03T15:06:44.464Z,22.14
2023-03-03T15:09:43.199Z,22.14
2023-03-03T15:12:26.060Z,22.15
2023-03-03T15:15:04.463Z,22.20
2023-03-03T15:17:35.341Z,22.18
2023-03-03T15:20:16.663Z,22.20
2023-03-03T15:22:45.983Z,22.26
2023-03-03T15:25:21.100Z,22.27
2023-03-03T15:28:06.079Z,22.27
2023-03-03T15:30:35.002Z,22.21
2023-03-03T15:33:20.737Z,22.20
2023-03-03T15:35:48.836Z,22.23
2023-03-03T15:38:28.178Z,22.25
2023-03-03T15:40:58.044Z,22.21
2023-03-03T15:43:24.441Z,22.24
2023-03-03T15:46:06.551Z,22.26
2023-03-03T15:48:34.347Z,22.29
2023-03-03T15:51:06.557Z,22.31
2023-03-03T15:53:38.807Z,22.29
2023-03-03T15:56:27.382Z,19.01
2023-03-03T15:59:07.204Z,19.23
2023-03-03T16:01:34.151Z,20.78
2023-03-03T16:04:00.432Z,21.36
2023-03-03T16:06:32.611Z,21.60
2023-03-03T16:09:01.868Z,21.72
2023-03-03T16:11:30.110Z,21.78
2023-03-03T16:14:01.736Z,21.83
2023-03-03T16:16:43.198Z,21.90
2023-03-03T16:19:18.095Z,21.93
2023-03-03T16:21:53.437Z,21.96
2023-03-03T16:24:29.569Z,21.99
2023-03-03T16:27:04.708Z,22.00
2023-03-03T16:29:36.063Z,21.98
2023-03-03T16:32:05.126Z,21.97
2023-03-03T16:34:37.471Z,21.99
2023-03-03T16:37:10.816Z,22.04
2023-03-03T16:39:52.010Z,22.05
2023-03-03T16:42:24.202Z,22.04
2023-03-03T16:44:50.461Z,22.03
2023-03-03T16:47:19.357Z,22.04
2023-03-03T16:50:04.391Z,22.07
2023-03-03T16:52:36.410Z,22.10
2023-03-03T16:55:05.068Z,22.09
2023-03-03T16:57:33.172Z,22.10
2023-03-03T17:00:02.467Z,21.90
2023-03-03T17:02:32.893Z,21.76
2023-03-03T17:05:03.070Z,21.66
2023-03-03T17:07:35.010Z,21.62
2023-03-03T17:10:05.837Z,21.58
2023-03-03T17:12:38.632Z,21.61
2023-03-03T17:15:07.496Z,21.60
2023-03-03T17:17:36.578Z,21.58
2023-03-03T17:20:09.685Z,21.57
2023-03-03T17:22:51.037Z,21.59
2023-03-03T17:25:21.419Z,21.59
2023-03-03T17:27:57.314Z,21.56
2023-03-03T17:30:26.692Z,21.57
2023-03-03T17:32:52.980Z,21.54
2023-03-03T17:35:31.781Z,21.50
2023-03-03T17:38:06.589Z,21.49
2023-03-03T17:40:38.760Z,21.50
2023-03-03T17:43:21.850Z,21.51
2023-03-03T17:45:48.461Z,21.49
2023-03-03T17:48:20.499Z,21.50
2023-03-03T17:50:52.825Z,21.50
2023-03-03T17:53:25.010Z,21.49
2023-03-03T17:55:51.310Z,21.50
2023-03-03T17:58:21.990Z,21.48
2023-03-03T18:00:54.140Z,21.47
2023-03-03T18:03:23.616Z,21.45
2023-03-03T18:05:51.926Z,21.45
2023-03-03T18:08:36.815Z,21.48
2023-03-03T18:11:08.734Z,21.45
2023-03-03T18:13:49.217Z,21.45
2023-03-03T18:16:19.316Z,21.45
2023-03-03T18:18:54.651Z,21.51
2023-03-03T18:21:33.199Z,21.43
2023-03-03T18:24:19.126Z,21.49
2023-03-03T18:26:45.450Z,21.30
2023-03-03T18:29:13.547Z,21.29
2023-03-03T18:31:52.072Z,21.27
2023-03-03T18:34:21.060Z,21.27
2023-03-03T18:37:00.386Z,21.34
2023-03-03T18:39:40.997Z,21.43
2023-03-03T18:42:16.484Z,21.40
2023-03-03T18:44:43.134Z,21.25
2023-03-03T18:47:09.534Z,21.29
2023-03-03T18:49:47.764Z,21.41
2023-03-03T18:52:16.537Z,21.45
2023-03-03T18:54:42.938Z,21.49
2023-03-03T18:57:13.147Z,21.55
2023-03-03T18:59:40.118Z,21.58
2023-03-03T19:02:17.811Z,21.58
2023-03-03T19:05:05.430Z,21.59
2023-03-03T19:07:40.672Z,21.59
2023-03-03T19:10:29.964Z,21.59
2023-03-03T19:12:57.648Z,21.59
2023-03-03T19:15:29.777Z,21.64
2023-03-03T19:17:57.118Z,21.67
2023-03-03T19:20:23.503Z,21.60
2023-03-03T19:22:50.456Z,21.51
2023-03-03T19:25:29.059Z,21.47
2023-03-03T19:28:01.399Z,21.42
2023-03-03T19:30:36.471Z,21.42
2023-03-03T19:33:05.992Z,21.39
2023-03-03T19:35:54.016Z,21.37
2023-03-03T19:38:38.876Z,21.38
2023-03-03T19:41:19.176Z,21.41
2023-03-03T19:43:58.044Z,21.41
2023-03-03T19:46:43.320Z,21.38
2023-03-03T19:49:13.223Z,21.32
2023-03-03T19:51:58.337Z,21.30
2023-03-03T19:54:44.131Z,21.29
2023-03-03T19:57:13.520Z,21.27
2023-03-03T19:59:48.340Z,21.27
2023-03-03T20:02:36.319Z,21.27
2023-03-03T20:05:02.583Z,21.27
2023-03-03T20:07:38.118Z,21.25
2023-03-03T20:10:16.350Z,21.24
2023-03-03T20:13:02.593Z,21.23
2023-03-03T20:15:32.397Z,21.22
2023-03-03T20:18:01.631Z,21.21
2023-03-03T20:20:49.180Z,21.20
2023-03-03T20:23:36.906Z,21.19
2023-03-03T20:26:07.652Z,21.17
2023-03-03T20:28:56.831Z,21.19
2023-03-03T20:31:29.406Z,21.17
2023-03-03T20:33:59.584Z,21.16
2023-03-03T20:36:45.304Z,21.17
2023-03-03T20:39:18.148Z,21.16
2023-03-03T20:42:17.081Z,21.14
2023-03-03T20:45:02.259Z,21.13
2023-03-03T20:47:50.769Z,21.12
2023-03-03T20:50:27.853Z,21.10
2023-03-03T20:52:57.166Z,21.10
2023-03-03T20:55:26.033Z,21.10
2023-03-03T20:57:54.004Z,21.10
2023-03-03T21:00:40.717Z,21.09
2023-03-03T21:03:26.297Z,21.09
2023-03-03T21:05:54.564Z,21.09
2023-03-03T21:08:20.900Z,21.09
2023-03-03T21:10:55.455Z,21.09
2023-03-03T21:13:33.979Z,21.07
2023-03-03T21:16:01.937Z,21.08
2023-03-03T21:18:28.271Z,21.06
2023-03-03T21:20:54.635Z,21.07
2023-03-03T21:23:22.801Z,21.05
2023-03-03T21:25:55.579Z,21.04
2023-03-03T21:28:28.642Z,21.03
2023-03-03T21:31:01.253Z,21.05
2023-03-03T21:33:46.580Z,21.03
2023-03-03T21:36:13.822Z,21.04
2023-03-03T21:38:40.248Z,21.04
2023-03-03T21:41:06.823Z,21.03
2023-03-03T21:43:36.857Z,21.02
2023-03-03T21:46:03.231Z,21.01
2023-03-03T21:48:29.661Z,21.00
2023-03-03T21:50:55.998Z,21.01
2023-03-03T21:53:23.740Z,20.99
2023-03-03T21:55:50.262Z,20.98
2023-03-03T21:58:16.669Z,20.97
2023-03-03T22:00:43.690Z,20.96
2023-03-03T22:03:10.303Z,20.95
2023-03-03T22:05:36.623Z,20.93
2023-03-03T22:08:02.982Z,20.94
2023-03-03T22:10:29.304Z,20.92
2023-03-03T22:12:55.906Z,20.92
2023-03-03T22:15:22.239Z,20.90
2023-03-03T22:17:48.644Z,20.90
2023-03-03T22:20:15.383Z,20.88
2023-03-03T22:22:41.785Z,20.88
2023-03-03T22:25:08.186Z,20.85
2023-03-03T22:27:34.806Z,20.85
2023-03-03T22:30:01.339Z,20.84
2023-03-03T22:32:28.426Z,20.82
2023-03-03T22:34:54.843Z,20.83
2023-03-03T22:37:21.183Z,20.84
2023-03-03T22:39:47.517Z,20.84
2023-03-03T22:42:13.843Z,20.85
2023-03-03T22:44:40.393Z,20.85
2023-03-03T22:47:06.764Z,20.85
2023-03-03T22:49:33.108Z,20.88
2023-03-03T22:51:59.437Z,20.87
2023-03-03T22:54:25.799Z,20.86
2023-03-03T22:56:52.111Z,20.86
2023-03-03T22:59:18.532Z,20.85
2023-03-03T23:01:44.852Z,20.83
2023-03-03T23:04:11.222Z,20.83
2023-03-03T23:06:37.562Z,20.82
2023-03-03T23:09:03.908Z,20.82
2023-03-03T23:11:30.229Z,20.81
2023-03-03T23:13:56.552Z,20.81
2023-03-03T23:16:22.935Z,20.81
2023-03-03T23:18:49.301Z,20.81
2023-03-03T23:21:15.701Z,20.80
2023-03-03T23:23:42.026Z,20.82
2023-03-03T23:26:08.345Z,20.81
2023-03-03T23:28:34.683Z,20.82
2023-03-03T23:31:01.064Z,20.82
2023-03-03T23:33:27.436Z,20.81
2023-03-03T23:35:53.832Z,20.81
2023-03-03T23:38:20.232Z,20.81
2023-03-03T23:40:46.790Z,20.80
2023-03-03T23:43:13.494Z,20.79
2023-03-03T23:45:39.824Z,20.79
2023-03-03T23:48:06.243Z,20.78
2023-03-03T23:54:41.781Z,20.76
2023-03-03T23:57:08.762Z,20.76
2023-03-03T23:59:35.170Z,20.75
